SWR12E EDDS-EDDM
Flight info
| Callsign | SWR12E |
|---|---|
| Flight time | 0h 24m |
| Altitude | 17000 |
| Route | ABTAL4H/07 ABTAL L173 RIXED Y161 RIDAR Z98 WLD T104 ROKIL ROKIL1A |
| Aircraft | A320/M-SDE3FGHIRWY/LB1 |
Departure
| Time | 2026-05-01 14:37 |
|---|---|
| Airport | Stuttgart Airport (EDDS) |
Arrival
| Time | 2026-05-01 15:01 |
|---|---|
| Airport | Munich Airport (EDDM) |
| Time | Latitude | Longitude | Altitude | Speed | Heading |
|---|---|---|---|---|---|
| 2026-05-01 14:12 | 48.68858 | 9.19294 | 1288 ft | 0 kts | 344° |
| 2026-05-01 14:21 | 48.68854 | 9.19296 | 1288 ft | 2 kts | 344° |
| 2026-05-01 14:21 | 48.68837 | 9.19303 | 1290 ft | 2 kts | 344° |
| 2026-05-01 14:21 | 48.68821 | 9.19310 | 1289 ft | 2 kts | 344° |
| 2026-05-01 14:22 | 48.68799 | 9.19304 | 1287 ft | 0 kts | 70° |
| 2026-05-01 14:23 | 48.68800 | 9.19309 | 1287 ft | 3 kts | 72° |
| 2026-05-01 14:24 | 48.68807 | 9.19346 | 1287 ft | 4 kts | 77° |
| 2026-05-01 14:24 | 48.68812 | 9.19389 | 1285 ft | 4 kts | 81° |
| 2026-05-01 14:24 | 48.68816 | 9.19433 | 1289 ft | 5 kts | 81° |
| 2026-05-01 14:24 | 48.68824 | 9.19496 | 1287 ft | 7 kts | 79° |
| 2026-05-01 14:25 | 48.68836 | 9.19570 | 1289 ft | 8 kts | 76° |
| 2026-05-01 14:25 | 48.68851 | 9.19661 | 1288 ft | 10 kts | 76° |
| 2026-05-01 14:25 | 48.68875 | 9.19769 | 1288 ft | 12 kts | 63° |
| 2026-05-01 14:25 | 48.68883 | 9.19803 | 1288 ft | 3 kts | 76° |
| 2026-05-01 14:26 | 48.68884 | 9.19824 | 1285 ft | 1 kts | 88° |
| 2026-05-01 14:26 | 48.68837 | 9.19894 | 1286 ft | 7 kts | 151° |
| 2026-05-01 14:26 | 48.68800 | 9.19928 | 1289 ft | 6 kts | 149° |
| 2026-05-01 14:27 | 48.68799 | 9.19930 | 1289 ft | 0 kts | 149° |
| 2026-05-01 14:27 | 48.68778 | 9.19945 | 1288 ft | 5 kts | 156° |
| 2026-05-01 14:27 | 48.68772 | 9.19948 | 1287 ft | 0 kts | 161° |
| 2026-05-01 14:28 | 48.68762 | 9.19953 | 1286 ft | 4 kts | 164° |
| 2026-05-01 14:28 | 48.68742 | 9.19962 | 1288 ft | 3 kts | 164° |
| 2026-05-01 14:29 | 48.68728 | 9.19967 | 1287 ft | 0 kts | 164° |
| 2026-05-01 14:32 | 48.68726 | 9.19968 | 1287 ft | 2 kts | 164° |
| 2026-05-01 14:32 | 48.68682 | 9.19987 | 1286 ft | 0 kts | 164° |
| 2026-05-01 14:32 | 48.68681 | 9.19987 | 1286 ft | 0 kts | 164° |
| 2026-05-01 14:35 | 48.68679 | 9.19988 | 1286 ft | 3 kts | 163° |
| 2026-05-01 14:35 | 48.68608 | 9.20062 | 1285 ft | 18 kts | 118° |
| 2026-05-01 14:35 | 48.68619 | 9.20264 | 1290 ft | 21 kts | 72° |
| 2026-05-01 14:35 | 48.68650 | 9.20414 | 1288 ft | 0 kts | 73° |
| 2026-05-01 14:36 | 48.68670 | 9.20512 | 1286 ft | 40 kts | 73° |
| 2026-05-01 14:36 | 48.68816 | 9.21297 | 1286 ft | 112 kts | 74° |
| 2026-05-01 14:36 | 48.69081 | 9.22706 | 1371 ft | 157 kts | 75° |
| 2026-05-01 14:37 | 48.69371 | 9.24317 | 2002 ft | 159 kts | 76° |
| 2026-05-01 14:37 | 48.69687 | 9.26013 | 2555 ft | 178 kts | 74° |
| 2026-05-01 14:37 | 48.70045 | 9.27889 | 3078 ft | 197 kts | 76° |
| 2026-05-01 14:37 | 48.70443 | 9.29962 | 3583 ft | 213 kts | 75° |
| 2026-05-01 14:38 | 48.70886 | 9.32248 | 4061 ft | 239 kts | 76° |
| 2026-05-01 14:38 | 48.71371 | 9.34757 | 4566 ft | 255 kts | 77° |
| 2026-05-01 14:38 | 48.71868 | 9.37379 | 4984 ft | 261 kts | 76° |
| 2026-05-01 14:38 | 48.72369 | 9.40037 | 5367 ft | 262 kts | 76° |
| 2026-05-01 14:39 | 48.72874 | 9.42711 | 5874 ft | 266 kts | 77° |
| 2026-05-01 14:39 | 48.73385 | 9.45427 | 6389 ft | 271 kts | 77° |
| 2026-05-01 14:39 | 48.73903 | 9.48186 | 6897 ft | 274 kts | 78° |
| 2026-05-01 14:39 | 48.74423 | 9.50965 | 7370 ft | 275 kts | 77° |
| 2026-05-01 14:40 | 48.74611 | 9.53821 | 7857 ft | 273 kts | 98° |
| 2026-05-01 14:40 | 48.74302 | 9.56666 | 8355 ft | 275 kts | 101° |
| 2026-05-01 14:40 | 48.73964 | 9.59533 | 8861 ft | 277 kts | 101° |
| 2026-05-01 14:40 | 48.73619 | 9.62411 | 9382 ft | 278 kts | 102° |
| 2026-05-01 14:41 | 48.73271 | 9.65285 | 9901 ft | 278 kts | 103° |
| 2026-05-01 14:41 | 48.72915 | 9.68205 | 10412 ft | 291 kts | 102° |
| 2026-05-01 14:41 | 48.72535 | 9.71320 | 10901 ft | 309 kts | 102° |
| 2026-05-01 14:41 | 48.72139 | 9.74610 | 11394 ft | 324 kts | 101° |
| 2026-05-01 14:42 | 48.71729 | 9.78021 | 11890 ft | 333 kts | 101° |
| 2026-05-01 14:42 | 48.71307 | 9.81509 | 12391 ft | 339 kts | 101° |
| 2026-05-01 14:42 | 48.70881 | 9.85024 | 12912 ft | 341 kts | 100° |
| 2026-05-01 14:42 | 48.70450 | 9.88555 | 13429 ft | 342 kts | 100° |
| 2026-05-01 14:43 | 48.70015 | 9.92113 | 13954 ft | 346 kts | 100° |
| 2026-05-01 14:43 | 48.69573 | 9.95717 | 14446 ft | 349 kts | 100° |
| 2026-05-01 14:43 | 48.69127 | 9.99337 | 14934 ft | 349 kts | 100° |
| 2026-05-01 14:43 | 48.68685 | 10.02911 | 15417 ft | 352 kts | 100° |
| 2026-05-01 14:44 | 48.68231 | 10.06571 | 15907 ft | 355 kts | 100° |
| 2026-05-01 14:44 | 48.67312 | 10.13939 | 16907 ft | 358 kts | 99° |
| 2026-05-01 14:44 | 48.66852 | 10.17644 | 17054 ft | 360 kts | 100° |
| 2026-05-01 14:45 | 48.66393 | 10.21300 | 16636 ft | 357 kts | 100° |
| 2026-05-01 14:45 | 48.65462 | 10.28618 | 15824 ft | 352 kts | 100° |
| 2026-05-01 14:45 | 48.65008 | 10.32242 | 15444 ft | 352 kts | 99° |
| 2026-05-01 14:46 | 48.64557 | 10.35863 | 15025 ft | 349 kts | 99° |
| 2026-05-01 14:46 | 48.63647 | 10.43066 | 14141 ft | 342 kts | 99° |
| 2026-05-01 14:46 | 48.63204 | 10.46530 | 14067 ft | 328 kts | 100° |
| 2026-05-01 14:47 | 48.62779 | 10.49826 | 14087 ft | 312 kts | 99° |
| 2026-05-01 14:47 | 48.62374 | 10.52966 | 14082 ft | 297 kts | 99° |
| 2026-05-01 14:47 | 48.61986 | 10.55962 | 14086 ft | 284 kts | 99° |
| 2026-05-01 14:48 | 48.61264 | 10.61557 | 14080 ft | 258 kts | 99° |
| 2026-05-01 14:48 | 48.60932 | 10.64126 | 14080 ft | 249 kts | 99° |
| 2026-05-01 14:48 | 48.60261 | 10.69329 | 13431 ft | 256 kts | 99° |
| 2026-05-01 14:49 | 48.59567 | 10.74656 | 12655 ft | 261 kts | 99° |
| 2026-05-01 14:49 | 48.58890 | 10.80075 | 11892 ft | 264 kts | 97° |
| 2026-05-01 14:50 | 48.58139 | 10.83588 | 11387 ft | 266 kts | 117° |
| 2026-05-01 14:50 | 48.55767 | 10.90090 | 10461 ft | 265 kts | 117° |
| 2026-05-01 14:51 | 48.54884 | 10.92522 | 10134 ft | 263 kts | 117° |
| 2026-05-01 14:51 | 48.53147 | 10.97339 | 9383 ft | 259 kts | 117° |
| 2026-05-01 14:52 | 48.51438 | 11.02074 | 8663 ft | 255 kts | 117° |
| 2026-05-01 14:52 | 48.50594 | 11.04413 | 8308 ft | 253 kts | 117° |
| 2026-05-01 14:52 | 48.48919 | 11.09048 | 7615 ft | 250 kts | 117° |
| 2026-05-01 14:53 | 48.48090 | 11.11340 | 7267 ft | 248 kts | 117° |
| 2026-05-01 14:53 | 48.47273 | 11.13607 | 6957 ft | 244 kts | 118° |
| 2026-05-01 14:53 | 48.46466 | 11.15840 | 6633 ft | 241 kts | 118° |
| 2026-05-01 14:53 | 48.45668 | 11.18042 | 6305 ft | 236 kts | 118° |
| 2026-05-01 14:54 | 48.44887 | 11.20188 | 6047 ft | 230 kts | 118° |
| 2026-05-01 14:54 | 48.44125 | 11.22290 | 5798 ft | 226 kts | 117° |
| 2026-05-01 14:54 | 48.43380 | 11.24344 | 5542 ft | 220 kts | 118° |
| 2026-05-01 14:54 | 48.42657 | 11.26337 | 5355 ft | 213 kts | 117° |
| 2026-05-01 14:55 | 48.41966 | 11.28239 | 5279 ft | 210 kts | 117° |
| 2026-05-01 14:55 | 48.41257 | 11.30192 | 5240 ft | 213 kts | 117° |
| 2026-05-01 14:55 | 48.40549 | 11.32147 | 5178 ft | 214 kts | 117° |
| 2026-05-01 14:55 | 48.39832 | 11.34118 | 5076 ft | 213 kts | 117° |
| 2026-05-01 14:56 | 48.39119 | 11.36068 | 4995 ft | 211 kts | 117° |
| 2026-05-01 14:56 | 48.38406 | 11.38016 | 4997 ft | 212 kts | 117° |
| 2026-05-01 14:56 | 48.37936 | 11.39302 | 4988 ft | 212 kts | 117° |
| 2026-05-01 14:56 | 48.37221 | 11.41260 | 4982 ft | 212 kts | 117° |
| 2026-05-01 14:57 | 48.36516 | 11.43189 | 4981 ft | 213 kts | 118° |
| 2026-05-01 14:57 | 48.35082 | 11.47095 | 4986 ft | 213 kts | 117° |
| 2026-05-01 14:57 | 48.34454 | 11.49091 | 4983 ft | 211 kts | 105° |
| 2026-05-01 14:58 | 48.34278 | 11.51280 | 4996 ft | 212 kts | 86° |
| 2026-05-01 14:58 | 48.34442 | 11.53502 | 4655 ft | 219 kts | 84° |
| 2026-05-01 14:58 | 48.34629 | 11.55800 | 4264 ft | 224 kts | 83° |
| 2026-05-01 14:58 | 48.34814 | 11.58112 | 3969 ft | 219 kts | 83° |
| 2026-05-01 14:59 | 48.34990 | 11.60323 | 3664 ft | 204 kts | 83° |
| 2026-05-01 14:59 | 48.35150 | 11.62359 | 3395 ft | 189 kts | 83° |
| 2026-05-01 14:59 | 48.35300 | 11.64272 | 3144 ft | 179 kts | 84° |
| 2026-05-01 14:59 | 48.35442 | 11.66075 | 2921 ft | 172 kts | 83° |
| 2026-05-01 15:00 | 48.35713 | 11.69529 | 2468 ft | 162 kts | 84° |
| 2026-05-01 15:00 | 48.35846 | 11.71235 | 2243 ft | 164 kts | 82° |
| 2026-05-01 15:00 | 48.35978 | 11.72932 | 2030 ft | 163 kts | 84° |
| 2026-05-01 15:01 | 48.36107 | 11.74591 | 1793 ft | 155 kts | 82° |
| 2026-05-01 15:01 | 48.36232 | 11.76204 | 1601 ft | 154 kts | 82° |
| 2026-05-01 15:01 | 48.36354 | 11.77766 | 1461 ft | 143 kts | 83° |
| 2026-05-01 15:01 | 48.36436 | 11.78820 | 1470 ft | 39 kts | 83° |
| 2026-05-01 15:02 | 48.36448 | 11.79058 | 1461 ft | 22 kts | 86° |
| 2026-05-01 15:02 | 48.36443 | 11.79204 | 1470 ft | 21 kts | 96° |
| 2026-05-01 15:02 | 48.36391 | 11.79472 | 1460 ft | 18 kts | 113° |
| 2026-05-01 15:02 | 48.36360 | 11.79576 | 1462 ft | 7 kts | 114° |
| 2026-05-01 15:03 | 48.36347 | 11.79620 | 1457 ft | 0 kts | 114° |
| 2026-05-01 15:03 | 48.36345 | 11.79628 | 1459 ft | 4 kts | 114° |
| 2026-05-01 15:03 | 48.36325 | 11.79695 | 1463 ft | 12 kts | 114° |
| 2026-05-01 15:03 | 48.36266 | 11.79767 | 1468 ft | 8 kts | 203° |
| 2026-05-01 15:04 | 48.36227 | 11.79674 | 1463 ft | 12 kts | 252° |
| 2026-05-01 15:04 | 48.36214 | 11.79554 | 1465 ft | 11 kts | 257° |
| 2026-05-01 15:04 | 48.36172 | 11.79475 | 1468 ft | 9 kts | 205° |
| 2026-05-01 15:04 | 48.36114 | 11.79474 | 1468 ft | 8 kts | 174° |
| 2026-05-01 15:05 | 48.36063 | 11.79485 | 1465 ft | 7 kts | 172° |
| 2026-05-01 15:05 | 48.36023 | 11.79494 | 1463 ft | 3 kts | 172° |
| 2026-05-01 15:05 | 48.36021 | 11.79494 | 1462 ft | 0 kts | 172° |
| 2026-05-01 15:05 | 48.36018 | 11.79495 | 1467 ft | 4 kts | 172° |
| 2026-05-01 15:06 | 48.35889 | 11.79516 | 1460 ft | 20 kts | 177° |
| 2026-05-01 15:06 | 48.35799 | 11.79579 | 1461 ft | 11 kts | 104° |
| 2026-05-01 15:06 | 48.35802 | 11.79701 | 1460 ft | 13 kts | 84° |
| 2026-05-01 15:06 | 48.35814 | 11.79841 | 1467 ft | 14 kts | 82° |
| 2026-05-01 15:07 | 48.35811 | 11.79994 | 1464 ft | 15 kts | 111° |
| 2026-05-01 15:07 | 48.35736 | 11.80075 | 1463 ft | 4 kts | 172° |
| 2026-05-01 15:07 | 48.35726 | 11.80077 | 1467 ft | 8 kts | 172° |
| 2026-05-01 15:07 | 48.35686 | 11.80072 | 1462 ft | 0 kts | 202° |
| 2026-05-01 15:08 | 48.35678 | 11.80057 | 1463 ft | 5 kts | 238° |
| 2026-05-01 15:08 | 48.35667 | 11.79978 | 1467 ft | 9 kts | 262° |
| 2026-05-01 15:08 | 48.35664 | 11.79945 | 1464 ft | 0 kts | 262° |